createdAt,value
2022-08-12T00:02:44.118Z,6.37
2022-08-12T00:05:30.359Z,6.27
2022-08-12T00:08:16.265Z,6.33
2022-08-12T00:11:09.678Z,6.97
2022-08-12T00:13:58.092Z,7.60
2022-08-12T00:16:45.963Z,9.50
2022-08-12T00:19:31.396Z,7.10
2022-08-12T00:22:17.228Z,7.37
2022-08-12T00:25:02.371Z,7.13
2022-08-12T00:27:47.555Z,6.70
2022-08-12T00:30:32.812Z,6.97
2022-08-12T00:33:18.151Z,6.97
2022-08-12T00:36:09.362Z,8.20
2022-08-12T00:39:03.029Z,6.83
2022-08-12T00:41:49.032Z,8.70
2022-08-12T00:44:16.373Z,7.73
2022-08-12T00:46:57.372Z,7.23
2022-08-12T00:49:25.085Z,8.40
2022-08-12T00:52:11.448Z,6.53
2022-08-12T00:54:39.921Z,6.60
2022-08-12T00:57:15.813Z,6.57
2022-08-12T00:59:50.612Z,7.57
2022-08-12T01:02:24.960Z,7.47
2022-08-12T01:05:11.109Z,6.93
2022-08-12T01:07:57.326Z,6.93
2022-08-12T01:10:43.593Z,8.10
2022-08-12T01:13:19.542Z,7.63
2022-08-12T01:15:47.549Z,6.47
2022-08-12T01:18:14.852Z,6.80
2022-08-12T01:20:48.007Z,6.13
2022-08-12T01:23:27.233Z,6.60
2022-08-12T01:25:55.938Z,6.73
2022-08-12T01:28:24.341Z,7.20
2022-08-12T01:30:50.983Z,8.40
2022-08-12T01:33:18.351Z,7.80
2022-08-12T01:35:58.028Z,7.20
2022-08-12T01:38:36.105Z,7.63
2022-08-12T01:41:03.574Z,7.90
2022-08-12T01:43:30.776Z,8.17
2022-08-12T01:46:09.475Z,8.63
2022-08-12T01:48:46.009Z,7.50
2022-08-12T01:52:20.331Z,9.00
2022-08-12T01:54:18.899Z,9.77
2022-08-12T01:57:58.085Z,9.90
2022-08-12T02:00:13.694Z,9.93
2022-08-12T02:02:46.419Z,9.17
2022-08-12T02:05:54.387Z,8.37
2022-08-12T02:09:02.172Z,10.23
2022-08-12T02:11:30.394Z,9.53
2022-08-12T02:14:15.221Z,8.10
2022-08-12T02:16:41.788Z,8.83
2022-08-12T02:19:27.940Z,9.97
2022-08-12T02:21:59.121Z,11.37
2022-08-12T02:24:26.883Z,11.00
2022-08-12T02:26:56.372Z,10.53
2022-08-12T02:29:23.430Z,10.80
2022-08-12T02:31:50.717Z,10.40
2022-08-12T02:34:17.876Z,10.20
2022-08-12T02:36:45.421Z,10.83
2022-08-12T02:39:16.280Z,11.10
2022-08-12T02:41:43.815Z,10.80
2022-08-12T02:44:15.137Z,10.10
2022-08-12T02:46:44.286Z,10.97
2022-08-12T02:49:15.803Z,10.20
2022-08-12T02:51:44.229Z,9.97
2022-08-12T02:54:11.200Z,11.20
2022-08-12T02:56:50.955Z,10.60
2022-08-12T02:59:19.641Z,10.47
2022-08-12T03:01:48.572Z,10.57
2022-08-12T03:04:20.649Z,10.70
2022-08-12T03:07:01.218Z,11.03
2022-08-12T03:09:32.746Z,10.20
2022-08-12T03:12:10.436Z,10.03
2022-08-12T03:14:44.821Z,9.40
2022-08-12T03:17:30.546Z,10.73
2022-08-12T03:20:09.566Z,10.93
2022-08-12T03:22:40.522Z,11.30
2022-08-12T03:25:12.434Z,10.20
2022-08-12T03:27:55.767Z,9.80
2022-08-12T03:30:23.970Z,11.00
2022-08-12T03:32:51.882Z,10.00
2022-08-12T03:35:41.351Z,11.37
2022-08-12T03:38:12.221Z,10.50
2022-08-12T03:41:18.861Z,9.60
2022-08-12T03:44:30.655Z,12.17
2022-08-12T03:47:19.564Z,12.93
2022-08-12T03:50:05.341Z,9.63
2022-08-12T03:52:50.500Z,11.60
2022-08-12T03:55:35.901Z,11.43
2022-08-12T03:58:21.393Z,10.73
2022-08-12T04:00:48.668Z,11.13
2022-08-12T04:03:34.328Z,10.33
2022-08-12T04:06:00.918Z,10.67
2022-08-12T04:08:27.612Z,11.50
2022-08-12T04:11:13.071Z,11.97
2022-08-12T04:13:41.060Z,12.33
2022-08-12T04:16:10.316Z,12.23
2022-08-12T04:18:38.696Z,11.93
2022-08-12T04:21:09.934Z,14.30
2022-08-12T04:23:38.285Z,12.47
2022-08-12T04:26:05.670Z,11.23
2022-08-12T04:28:32.354Z,10.83
2022-08-12T04:30:59.212Z,12.27
2022-08-12T04:33:26.972Z,10.00
2022-08-12T04:35:54.241Z,11.37
2022-08-12T04:38:21.249Z,10.60
2022-08-12T04:40:48.123Z,10.40
2022-08-12T04:44:00.566Z,10.50
2022-08-12T04:46:02.739Z,11.17
2022-08-12T04:48:29.303Z,10.73
2022-08-12T04:50:57.062Z,10.83
2022-08-12T04:53:24.149Z,11.80
2022-08-12T04:55:52.206Z,11.27
2022-08-12T04:58:29.754Z,11.37
2022-08-12T05:00:57.204Z,10.40
2022-08-12T05:03:25.794Z,10.43
2022-08-12T05:05:52.843Z,10.60
2022-08-12T05:08:20.085Z,11.20
2022-08-12T05:10:47.371Z,11.30
2022-08-12T05:13:16.911Z,10.63
2022-08-12T05:16:03.989Z,10.97
2022-08-12T05:18:39.192Z,13.00
2022-08-12T05:21:07.788Z,12.20
2022-08-12T05:23:36.351Z,11.37
2022-08-12T05:26:03.524Z,13.10
2022-08-12T05:28:30.576Z,12.80
2022-08-12T05:30:57.633Z,12.87
2022-08-12T05:33:37.519Z,11.47
2022-08-12T05:36:07.537Z,9.47
2022-08-12T05:38:52.907Z,11.37
2022-08-12T05:41:20.664Z,8.93
2022-08-12T05:43:51.143Z,10.30
2022-08-12T05:46:18.469Z,9.40
2022-08-12T05:48:45.100Z,9.60
2022-08-12T05:51:11.947Z,9.57
2022-08-12T05:53:39.555Z,9.03
2022-08-12T05:56:06.888Z,8.90
2022-08-12T05:58:34.853Z,8.80
2022-08-12T06:02:12.642Z,7.87
2022-08-12T06:03:52.814Z,8.70
2022-08-12T06:06:22.293Z,9.00
2022-08-12T06:08:53.612Z,8.03
2022-08-12T06:11:24.251Z,9.63
2022-08-12T06:13:55.598Z,6.87
2022-08-12T06:16:23.571Z,7.03
2022-08-12T06:18:50.263Z,7.43
2022-08-12T06:21:18.192Z,7.27
2022-08-12T06:23:45.374Z,7.67
2022-08-12T06:26:12.679Z,6.90
2022-08-12T06:28:39.968Z,7.17
2022-08-12T06:35:11.092Z,5.90
2022-08-12T06:36:42.910Z,5.63
2022-08-12T06:39:15.437Z,5.10
2022-08-12T06:42:02.544Z,5.90
2022-08-12T06:44:48.595Z,5.47
2022-08-12T06:47:16.794Z,4.90
2022-08-12T06:49:44.337Z,5.47
2022-08-12T06:52:10.993Z,4.93
2022-08-12T06:54:37.676Z,4.87
2022-08-12T06:58:04.477Z,3.90
2022-08-12T06:59:51.218Z,5.63
2022-08-12T07:02:20.646Z,5.40
2022-08-12T07:04:48.134Z,5.27
2022-08-12T07:07:15.285Z,5.60
2022-08-12T07:10:03.643Z,4.40
2022-08-12T07:12:29.670Z,5.50
2022-08-12T07:14:57.287Z,4.77
2022-08-12T07:17:24.240Z,4.60
2022-08-12T07:19:53.769Z,5.27
2022-08-12T07:22:23.255Z,5.27
2022-08-12T07:25:10.011Z,4.60
2022-08-12T07:27:40.980Z,5.90
2022-08-12T07:30:08.228Z,5.40
2022-08-12T07:32:34.870Z,5.10
2022-08-12T07:35:04.108Z,4.80
2022-08-12T07:37:31.362Z,5.57
2022-08-12T07:40:00.483Z,4.07
2022-08-12T07:42:28.248Z,5.17
2022-08-12T07:44:55.966Z,4.23
2022-08-12T07:47:23.274Z,3.73
2022-08-12T07:50:05.082Z,4.40
2022-08-12T07:52:37.203Z,4.53
2022-08-12T07:55:04.183Z,4.37
2022-08-12T07:57:34.248Z,3.20
2022-08-12T08:00:06.134Z,3.93
2022-08-12T08:02:38.184Z,3.90
2022-08-12T08:05:08.378Z,3.70
2022-08-12T08:07:35.260Z,3.60
2022-08-12T08:10:03.933Z,4.00
2022-08-12T08:12:50.403Z,3.23
2022-08-12T08:15:17.053Z,3.60
2022-08-12T08:18:04.095Z,3.40
2022-08-12T08:20:49.080Z,2.33
2022-08-12T08:23:17.286Z,3.30
2022-08-12T08:25:45.004Z,2.90
2022-08-12T08:28:12.599Z,2.87
2022-08-12T08:30:43.484Z,3.37
2022-08-12T08:33:23.752Z,2.90
2022-08-12T08:35:58.481Z,3.30
2022-08-12T08:38:33.261Z,4.27
2022-08-12T08:42:15.460Z,2.70
2022-08-12T08:44:10.752Z,3.30
2022-08-12T08:46:38.366Z,3.00
2022-08-12T08:49:05.781Z,3.10
2022-08-12T08:51:33.068Z,3.27
2022-08-12T08:53:59.749Z,2.93
2022-08-12T08:56:29.161Z,4.30
2022-08-12T08:58:57.590Z,3.03
2022-08-12T09:01:24.375Z,2.90
2022-08-12T09:05:09.071Z,3.03
2022-08-12T09:06:39.736Z,3.10
2022-08-12T09:09:13.447Z,2.93
2022-08-12T09:12:10.619Z,2.77
2022-08-12T09:14:39.420Z,2.43
2022-08-12T09:17:06.018Z,2.97
2022-08-12T09:19:33.440Z,2.40
2022-08-12T09:22:00.553Z,2.70
2022-08-12T09:24:27.685Z,2.50
2022-08-12T09:26:54.706Z,2.13
2022-08-12T09:30:11.418Z,2.20
2022-08-12T09:32:29.553Z,2.43
2022-08-12T09:34:56.806Z,2.83
2022-08-12T09:37:26.871Z,1.83
2022-08-12T09:40:14.701Z,2.03
2022-08-12T09:43:15.304Z,3.10
2022-08-12T09:46:11.586Z,1.80
2022-08-12T09:48:40.048Z,3.17
2022-08-12T09:51:21.755Z,2.50
2022-08-12T09:54:05.456Z,2.90
2022-08-12T09:57:03.097Z,1.40
2022-08-12T10:00:12.782Z,2.03
2022-08-12T10:02:42.516Z,2.17
2022-08-12T10:04:57.879Z,2.17
2022-08-12T10:07:25.344Z,2.93
2022-08-12T10:09:57.263Z,1.67
2022-08-12T10:13:06.818Z,2.37
2022-08-12T10:16:01.973Z,3.87
2022-08-12T10:18:19.542Z,1.73
2022-08-12T10:20:46.201Z,3.10
2022-08-12T10:23:12.951Z,2.10
2022-08-12T10:26:35.054Z,2.13
2022-08-12T10:30:02.128Z,2.40
2022-08-12T10:32:21.075Z,1.90
2022-08-12T10:34:40.343Z,1.87
2022-08-12T10:38:05.700Z,2.53
2022-08-12T10:40:12.586Z,2.30
2022-08-12T10:43:01.182Z,2.50
2022-08-12T10:45:30.406Z,1.73
2022-08-12T10:48:07.100Z,2.00
2022-08-12T10:51:02.327Z,1.90
2022-08-12T10:53:45.864Z,1.67
2022-08-12T10:56:16.899Z,2.00
2022-08-12T10:58:46.101Z,1.30
2022-08-12T11:03:01.553Z,2.20
2022-08-12T11:04:28.360Z,2.67
2022-08-12T11:07:09.932Z,1.63
2022-08-12T11:09:55.773Z,2.40
2022-08-12T11:12:56.299Z,1.83
2022-08-12T11:15:21.172Z,2.40
2022-08-12T11:17:53.878Z,1.90
2022-08-12T11:20:23.967Z,1.73
2022-08-12T11:22:59.581Z,1.60
2022-08-12T11:25:42.210Z,3.13
2022-08-12T11:28:14.934Z,1.97
2022-08-12T11:30:43.559Z,1.90
2022-08-12T11:33:12.312Z,1.87
2022-08-12T11:35:51.293Z,1.50
2022-08-12T11:38:21.188Z,1.60
2022-08-12T11:40:47.920Z,1.97
2022-08-12T11:43:19.715Z,1.60
2022-08-12T11:45:47.650Z,1.60
2022-08-12T11:48:20.118Z,1.27
2022-08-12T11:50:54.445Z,1.50
2022-08-12T11:53:57.119Z,2.50
2022-08-12T11:56:08.085Z,2.60
2022-08-12T12:01:58.187Z,1.70
2022-08-12T12:02:01.350Z,1.50
2022-08-12T12:04:12.076Z,2.00
2022-08-12T12:06:39.016Z,1.90
2022-08-12T12:09:08.095Z,1.50
2022-08-12T12:11:48.626Z,2.07
2022-08-12T12:14:16.038Z,1.87
2022-08-12T12:16:48.266Z,2.60
2022-08-12T12:19:17.705Z,1.40
2022-08-12T12:21:46.960Z,2.50
2022-08-12T12:24:20.914Z,1.57
2022-08-12T12:26:59.541Z,1.90
2022-08-12T12:30:18.007Z,1.80
2022-08-12T12:32:13.894Z,1.57
2022-08-12T12:35:12.998Z,1.30
2022-08-12T12:38:04.024Z,1.97
2022-08-12T12:40:14.731Z,1.73
2022-08-12T12:42:56.042Z,1.20
2022-08-12T12:45:26.061Z,1.63
2022-08-12T12:47:55.074Z,1.87
2022-08-12T12:50:35.435Z,1.97
2022-08-12T12:53:03.867Z,2.07
2022-08-12T12:55:36.043Z,1.57
2022-08-12T12:58:04.760Z,1.83
2022-08-12T13:00:33.241Z,1.30
2022-08-12T13:03:02.201Z,1.43
2022-08-12T13:05:42.340Z,1.40
2022-08-12T13:08:39.143Z,1.10
2022-08-12T13:11:06.696Z,1.40
2022-08-12T13:14:10.378Z,2.17
2022-08-12T13:16:30.305Z,2.03
2022-08-12T13:18:59.630Z,1.20
2022-08-12T13:21:36.788Z,1.97
2022-08-12T13:24:10.813Z,1.27
2022-08-12T13:26:40.798Z,1.70
2022-08-12T13:29:11.294Z,1.80
2022-08-12T13:32:02.029Z,1.83
2022-08-12T13:34:34.387Z,1.60
2022-08-12T13:37:09.777Z,1.70
2022-08-12T13:39:38.072Z,1.30
2022-08-12T13:42:14.351Z,1.43
2022-08-12T13:44:42.184Z,1.67
2022-08-12T13:47:18.330Z,1.13
2022-08-12T13:49:54.528Z,2.13
2022-08-12T13:52:23.684Z,1.83
2022-08-12T13:54:56.353Z,1.80
2022-08-12T13:57:25.673Z,1.67
2022-08-12T13:59:55.566Z,1.17
2022-08-12T14:02:27.425Z,1.23
2022-08-12T14:04:56.453Z,1.40
2022-08-12T14:07:26.191Z,1.43
2022-08-12T14:10:16.438Z,1.80
2022-08-12T14:12:54.764Z,1.07
2022-08-12T14:15:34.974Z,1.27
2022-08-12T14:18:09.975Z,1.60
2022-08-12T14:20:41.404Z,1.50
2022-08-12T14:24:02.069Z,2.50
2022-08-12T14:26:00.720Z,1.40
2022-08-12T14:28:28.467Z,1.50
2022-08-12T14:31:01.223Z,1.70
2022-08-12T14:33:44.137Z,1.87
2022-08-12T14:36:12.856Z,1.63
2022-08-12T14:38:41.452Z,1.73
2022-08-12T14:41:12.686Z,1.27
2022-08-12T14:43:44.245Z,1.10
2022-08-12T14:46:27.910Z,1.13
2022-08-12T14:48:55.174Z,1.97
2022-08-12T14:52:43.369Z,1.20
2022-08-12T14:57:33.619Z,1.17
2022-08-12T15:00:22.977Z,1.23
2022-08-12T15:02:56.366Z,1.40
2022-08-12T15:06:06.320Z,1.33
2022-08-12T15:08:13.604Z,1.57
2022-08-12T15:10:49.924Z,1.37
2022-08-12T15:13:23.320Z,1.30
2022-08-12T15:15:54.456Z,1.30
2022-08-12T15:18:25.257Z,0.90
2022-08-12T15:20:54.662Z,1.40
2022-08-12T15:23:23.107Z,1.53
2022-08-12T15:26:02.884Z,1.70
2022-08-12T15:28:32.340Z,0.90
2022-08-12T15:30:59.252Z,1.30
2022-08-12T15:33:44.971Z,1.20
2022-08-12T15:36:13.811Z,1.80
2022-08-12T15:38:41.899Z,1.40
2022-08-12T15:41:11.555Z,1.23
2022-08-12T15:44:16.179Z,1.60
2022-08-12T15:46:32.397Z,1.70
2022-08-12T15:48:59.610Z,1.43
2022-08-12T15:51:58.532Z,1.10
2022-08-12T15:54:34.428Z,1.37
2022-08-12T15:57:05.663Z,1.70
2022-08-12T16:00:00.328Z,1.30
2022-08-12T16:02:26.991Z,1.30
2022-08-12T16:04:55.011Z,1.43
2022-08-12T16:07:29.641Z,1.20
2022-08-12T16:10:08.458Z,0.90
2022-08-12T16:12:39.682Z,1.30
2022-08-12T16:15:07.101Z,1.30
2022-08-12T16:18:14.994Z,1.77
2022-08-12T16:20:33.014Z,1.37
2022-08-12T16:23:04.398Z,1.40
2022-08-12T16:26:00.209Z,1.73
2022-08-12T16:28:18.230Z,1.20
2022-08-12T16:30:50.191Z,1.70
2022-08-12T16:33:19.941Z,2.30
2022-08-12T16:35:47.673Z,1.70
2022-08-12T16:38:25.220Z,1.83
2022-08-12T16:40:57.855Z,1.27
2022-08-12T16:43:31.467Z,2.00
2022-08-12T16:46:23.503Z,1.80
2022-08-12T16:48:50.525Z,1.67
2022-08-12T16:51:19.843Z,1.70
2022-08-12T16:53:49.151Z,1.33
2022-08-12T16:56:16.948Z,1.73
2022-08-12T16:58:44.473Z,1.50
2022-08-12T17:01:15.809Z,1.30
2022-08-12T17:03:48.843Z,1.50
2022-08-12T17:06:22.451Z,1.97
2022-08-12T17:08:56.458Z,2.13
2022-08-12T17:11:24.614Z,2.13
2022-08-12T17:13:53.104Z,1.50
2022-08-12T17:16:20.570Z,2.13
2022-08-12T17:18:57.442Z,2.07
2022-08-12T17:21:41.373Z,1.77
2022-08-12T17:24:22.551Z,2.00
2022-08-12T17:27:09.444Z,1.83
2022-08-12T17:30:02.769Z,1.67
2022-08-12T17:32:33.293Z,1.37
2022-08-12T17:35:18.879Z,2.27
2022-08-12T17:37:48.406Z,1.93
2022-08-12T17:40:35.348Z,1.77
2022-08-12T17:43:03.369Z,2.20
2022-08-12T17:45:52.394Z,2.33
2022-08-12T17:48:21.828Z,1.57
2022-08-12T17:50:50.813Z,1.90
2022-08-12T17:53:19.804Z,1.87
2022-08-12T17:55:51.887Z,2.10
2022-08-12T17:58:36.828Z,2.00
2022-08-12T18:01:05.645Z,1.70
2022-08-12T18:04:04.204Z,2.57
2022-08-12T18:06:28.009Z,1.63
2022-08-12T18:08:56.746Z,1.80
2022-08-12T18:12:04.041Z,1.80
2022-08-12T18:14:32.058Z,1.60
2022-08-12T18:17:00.829Z,1.60
2022-08-12T18:20:04.286Z,1.90
2022-08-12T18:22:17.572Z,2.10
2022-08-12T18:24:49.647Z,1.80
2022-08-12T18:27:44.493Z,1.67
2022-08-12T18:30:20.923Z,1.83
2022-08-12T18:33:03.829Z,1.43
2022-08-12T18:35:47.978Z,1.60
2022-08-12T18:38:20.202Z,2.03
2022-08-12T18:41:07.166Z,1.50
2022-08-12T18:43:57.753Z,2.20
2022-08-12T18:46:29.326Z,1.83
2022-08-12T18:48:57.493Z,2.40
2022-08-12T18:51:48.951Z,2.80
2022-08-12T18:54:21.730Z,3.07
2022-08-12T18:56:49.346Z,2.77
2022-08-12T19:00:01.300Z,1.70
2022-08-12T19:02:18.908Z,2.20
2022-08-12T19:04:49.761Z,2.23
2022-08-12T19:07:22.121Z,2.10
2022-08-12T19:09:58.450Z,2.00
2022-08-12T19:12:55.476Z,1.60
2022-08-12T19:15:25.674Z,2.10
2022-08-12T19:18:00.737Z,3.30
2022-08-12T19:20:30.546Z,3.20
2022-08-12T19:23:02.353Z,17.60
2022-08-12T19:26:01.278Z,19.37
2022-08-12T19:28:57.636Z,3.30
2022-08-12T19:31:56.040Z,1.93
2022-08-12T19:37:27.154Z,2.80
2022-08-12T19:40:08.831Z,2.30
2022-08-12T19:43:01.011Z,2.93
2022-08-12T19:45:43.406Z,4.87
2022-08-12T19:48:19.465Z,3.03
2022-08-12T19:50:50.094Z,3.20
2022-08-12T19:53:19.565Z,2.63
2022-08-12T19:55:51.772Z,2.20
2022-08-12T19:58:19.632Z,2.40
2022-08-12T20:00:53.481Z,1.90
2022-08-12T20:03:40.055Z,2.00
2022-08-12T20:06:14.041Z,2.60
2022-08-12T20:08:48.938Z,2.60
2022-08-12T20:12:15.041Z,2.50
2022-08-12T20:14:09.216Z,2.47
2022-08-12T20:16:56.533Z,3.07
2022-08-12T20:19:52.678Z,2.47
2022-08-12T20:22:16.694Z,3.27
2022-08-12T20:24:55.401Z,3.93
2022-08-12T20:27:53.694Z,2.83
2022-08-12T20:30:13.553Z,3.40
2022-08-12T20:32:50.842Z,3.00
2022-08-12T20:35:24.654Z,3.97
2022-08-12T20:38:04.888Z,3.77
2022-08-12T20:40:38.930Z,3.17
2022-08-12T20:43:06.664Z,3.83
2022-08-12T20:45:51.269Z,4.27
2022-08-12T20:48:24.187Z,5.20
2022-08-12T20:50:53.913Z,6.13
2022-08-12T20:53:26.564Z,6.20
2022-08-12T20:56:19.645Z,5.40
2022-08-12T20:58:46.535Z,5.43
2022-08-12T21:01:19.645Z,5.40
2022-08-12T21:04:11.691Z,5.23
2022-08-12T21:06:57.114Z,5.13
2022-08-12T21:09:23.845Z,6.63
2022-08-12T21:11:50.625Z,7.80
2022-08-12T21:14:17.943Z,9.33
2022-08-12T21:17:05.713Z,11.23
2022-08-12T21:19:52.359Z,12.63
2022-08-12T21:22:24.360Z,15.07
2022-08-12T21:24:53.032Z,14.57
2022-08-12T21:27:57.810Z,15.57
2022-08-12T21:30:13.703Z,16.37
2022-08-12T21:32:44.409Z,16.87
2022-08-12T21:35:19.260Z,17.67
2022-08-12T21:37:53.013Z,18.30
2022-08-12T21:40:20.094Z,16.77
2022-08-12T21:42:47.357Z,16.50
2022-08-12T21:45:48.077Z,17.70
2022-08-12T21:48:08.223Z,18.80
2022-08-12T21:50:35.609Z,18.73
2022-08-12T21:53:10.578Z,19.30
2022-08-12T21:55:37.524Z,19.50
2022-08-12T21:58:11.257Z,18.70
2022-08-12T22:00:39.693Z,20.13
2022-08-12T22:04:03.895Z,20.70
2022-08-12T22:06:31.134Z,20.00
2022-08-12T22:09:15.389Z,20.00
2022-08-12T22:11:56.978Z,20.23
2022-08-12T22:14:29.818Z,20.27
2022-08-12T22:17:05.209Z,20.20
2022-08-12T22:19:59.524Z,20.40
2022-08-12T22:22:32.820Z,20.90
2022-08-12T22:25:00.828Z,19.20
2022-08-12T22:27:32.507Z,20.90
2022-08-12T22:30:19.982Z,19.37
2022-08-12T22:32:51.306Z,20.03
2022-08-12T22:35:55.636Z,21.30
2022-08-12T22:38:21.290Z,20.50
2022-08-12T22:40:49.020Z,20.10
2022-08-12T22:43:34.615Z,19.93
2022-08-12T22:46:26.704Z,19.83
2022-08-12T22:48:57.592Z,19.53
2022-08-12T22:51:24.584Z,19.83
2022-08-12T22:53:55.201Z,20.53
2022-08-12T22:56:23.483Z,17.67
2022-08-12T22:59:03.090Z,18.10
2022-08-12T23:01:52.029Z,15.83
2022-08-12T23:04:27.885Z,15.03
2022-08-12T23:06:56.291Z,14.73
2022-08-12T23:09:44.735Z,12.50
2022-08-12T23:12:37.447Z,11.00
2022-08-12T23:15:08.381Z,9.90
2022-08-12T23:17:40.944Z,11.43
2022-08-12T23:20:13.889Z,8.07
2022-08-12T23:22:40.975Z,8.03
2022-08-12T23:25:20.928Z,8.63
2022-08-12T23:28:30.253Z,6.87
2022-08-12T23:30:58.640Z,7.20
2022-08-12T23:34:02.484Z,6.87
2022-08-12T23:36:39.091Z,6.00
2022-08-12T23:39:06.738Z,7.37
2022-08-12T23:41:56.505Z,6.73
2022-08-12T23:44:41.693Z,6.33
2022-08-12T23:47:12.606Z,6.37
2022-08-12T23:49:56.347Z,6.80
2022-08-12T23:52:34.087Z,6.70
2022-08-12T23:55:04.760Z,6.27
2022-08-12T23:58:18.140Z,6.70
